sensor_id;sensor_type;location;lat;lon;timestamp;P1;durP1;ratioP1;P2;durP2;ratioP2
10446;SDS011;5271;44.422;26.092;2022-07-09T00:01:47;0.10;;;0.10;;
10446;SDS011;5271;44.422;26.092;2022-07-09T00:04:14;0.10;;;0.10;;
10446;SDS011;5271;44.422;26.092;2022-07-09T00:06:41;0.10;;;0.10;;
10446;SDS011;5271;44.422;26.092;2022-07-09T00:09:08;0.10;;;0.10;;
10446;SDS011;5271;44.422;26.092;2022-07-09T00:11:36;0.10;;;0.10;;
10446;SDS011;5271;44.422;26.092;2022-07-09T00:14:04;0.10;;;0.10;;
10446;SDS011;5271;44.422;26.092;2022-07-09T00:16:31;0.10;;;0.10;;
10446;SDS011;5271;44.422;26.092;2022-07-09T00:18:58;0.10;;;0.10;;
10446;SDS011;5271;44.422;26.092;2022-07-09T00:21:25;0.10;;;0.10;;
10446;SDS011;5271;44.422;26.092;2022-07-09T00:23:52;0.10;;;0.10;;
10446;SDS011;5271;44.422;26.092;2022-07-09T00:26:19;0.10;;;0.10;;
10446;SDS011;5271;44.422;26.092;2022-07-09T00:28:48;0.10;;;0.10;;
10446;SDS011;5271;44.422;26.092;2022-07-09T00:31:15;0.10;;;0.10;;
10446;SDS011;5271;44.422;26.092;2022-07-09T00:33:42;0.10;;;0.10;;
10446;SDS011;5271;44.422;26.092;2022-07-09T00:36:09;0.10;;;0.10;;
10446;SDS011;5271;44.422;26.092;2022-07-09T00:38:36;0.10;;;0.10;;
10446;SDS011;5271;44.422;26.092;2022-07-09T00:41:03;0.10;;;0.10;;
10446;SDS011;5271;44.422;26.092;2022-07-09T00:43:31;0.10;;;0.10;;
10446;SDS011;5271;44.422;26.092;2022-07-09T00:45:59;0.10;;;0.10;;
10446;SDS011;5271;44.422;26.092;2022-07-09T00:48:26;0.10;;;0.10;;
10446;SDS011;5271;44.422;26.092;2022-07-09T00:50:53;0.10;;;0.10;;
10446;SDS011;5271;44.422;26.092;2022-07-09T00:53:21;0.10;;;0.10;;
10446;SDS011;5271;44.422;26.092;2022-07-09T00:55:51;0.10;;;0.10;;
10446;SDS011;5271;44.422;26.092;2022-07-09T00:58:19;0.10;;;0.10;;
10446;SDS011;5271;44.422;26.092;2022-07-09T01:00:48;1.07;;;0.10;;
10446;SDS011;5271;44.422;26.092;2022-07-09T01:03:17;0.10;;;0.10;;
10446;SDS011;5271;44.422;26.092;2022-07-09T01:05:44;0.00;;;0.00;;
10446;SDS011;5271;44.422;26.092;2022-07-09T01:08:11;0.10;;;0.10;;
10446;SDS011;5271;44.422;26.092;2022-07-09T01:10:38;0.10;;;0.10;;
10446;SDS011;5271;44.422;26.092;2022-07-09T01:13:06;0.10;;;0.10;;
10446;SDS011;5271;44.422;26.092;2022-07-09T01:15:33;0.10;;;0.10;;
10446;SDS011;5271;44.422;26.092;2022-07-09T01:18:00;0.10;;;0.10;;
10446;SDS011;5271;44.422;26.092;2022-07-09T01:20:29;0.10;;;0.10;;
10446;SDS011;5271;44.422;26.092;2022-07-09T01:22:57;0.10;;;0.10;;
10446;SDS011;5271;44.422;26.092;2022-07-09T01:25:27;0.10;;;0.10;;
10446;SDS011;5271;44.422;26.092;2022-07-09T01:27:58;0.10;;;0.10;;
10446;SDS011;5271;44.422;26.092;2022-07-09T01:30:25;0.10;;;0.10;;
10446;SDS011;5271;44.422;26.092;2022-07-09T01:32:54;0.10;;;0.10;;
10446;SDS011;5271;44.422;26.092;2022-07-09T01:35:21;0.10;;;0.10;;
10446;SDS011;5271;44.422;26.092;2022-07-09T01:37:50;0.20;;;0.20;;
10446;SDS011;5271;44.422;26.092;2022-07-09T01:40:17;0.10;;;0.10;;
10446;SDS011;5271;44.422;26.092;2022-07-09T01:42:44;0.10;;;0.10;;
10446;SDS011;5271;44.422;26.092;2022-07-09T01:45:13;0.10;;;0.10;;
10446;SDS011;5271;44.422;26.092;2022-07-09T01:47:40;0.10;;;0.10;;
10446;SDS011;5271;44.422;26.092;2022-07-09T01:50:08;0.00;;;0.00;;
10446;SDS011;5271;44.422;26.092;2022-07-09T01:52:36;0.10;;;0.10;;
10446;SDS011;5271;44.422;26.092;2022-07-09T01:55:05;0.10;;;0.10;;
10446;SDS011;5271;44.422;26.092;2022-07-09T01:57:33;0.10;;;0.10;;
10446;SDS011;5271;44.422;26.092;2022-07-09T02:00:00;0.10;;;0.10;;
10446;SDS011;5271;44.422;26.092;2022-07-09T02:02:29;0.10;;;0.10;;
10446;SDS011;5271;44.422;26.092;2022-07-09T02:04:56;0.10;;;0.10;;
10446;SDS011;5271;44.422;26.092;2022-07-09T02:07:23;0.10;;;0.10;;
10446;SDS011;5271;44.422;26.092;2022-07-09T02:09:50;0.10;;;0.10;;
10446;SDS011;5271;44.422;26.092;2022-07-09T02:12:19;0.10;;;0.10;;
10446;SDS011;5271;44.422;26.092;2022-07-09T02:14:46;0.10;;;0.10;;
10446;SDS011;5271;44.422;26.092;2022-07-09T02:17:14;0.10;;;0.10;;
10446;SDS011;5271;44.422;26.092;2022-07-09T02:19:41;0.10;;;0.10;;
10446;SDS011;5271;44.422;26.092;2022-07-09T02:22:08;0.10;;;0.10;;
10446;SDS011;5271;44.422;26.092;2022-07-09T02:24:36;0.10;;;0.10;;
10446;SDS011;5271;44.422;26.092;2022-07-09T02:27:03;0.10;;;0.10;;
10446;SDS011;5271;44.422;26.092;2022-07-09T02:29:32;0.10;;;0.10;;
10446;SDS011;5271;44.422;26.092;2022-07-09T02:31:59;0.10;;;0.10;;
10446;SDS011;5271;44.422;26.092;2022-07-09T02:34:26;0.10;;;0.10;;
10446;SDS011;5271;44.422;26.092;2022-07-09T02:36:53;0.20;;;0.20;;
10446;SDS011;5271;44.422;26.092;2022-07-09T02:39:21;0.10;;;0.10;;
10446;SDS011;5271;44.422;26.092;2022-07-09T02:41:48;0.10;;;0.10;;
10446;SDS011;5271;44.422;26.092;2022-07-09T02:44:15;0.20;;;0.20;;
10446;SDS011;5271;44.422;26.092;2022-07-09T02:46:43;0.20;;;0.20;;
10446;SDS011;5271;44.422;26.092;2022-07-09T02:49:10;0.20;;;0.20;;
10446;SDS011;5271;44.422;26.092;2022-07-09T02:51:37;0.10;;;0.10;;
10446;SDS011;5271;44.422;26.092;2022-07-09T02:54:05;0.10;;;0.10;;
10446;SDS011;5271;44.422;26.092;2022-07-09T02:56:32;0.13;;;0.13;;
10446;SDS011;5271;44.422;26.092;2022-07-09T02:58:59;0.10;;;0.10;;
10446;SDS011;5271;44.422;26.092;2022-07-09T03:01:28;0.10;;;0.10;;
10446;SDS011;5271;44.422;26.092;2022-07-09T03:03:56;0.10;;;0.10;;
10446;SDS011;5271;44.422;26.092;2022-07-09T03:06:23;0.10;;;0.10;;
10446;SDS011;5271;44.422;26.092;2022-07-09T03:08:50;0.20;;;0.20;;
10446;SDS011;5271;44.422;26.092;2022-07-09T03:11:18;0.10;;;0.10;;
10446;SDS011;5271;44.422;26.092;2022-07-09T03:13:45;0.10;;;0.10;;
10446;SDS011;5271;44.422;26.092;2022-07-09T03:16:12;0.10;;;0.10;;
10446;SDS011;5271;44.422;26.092;2022-07-09T03:18:39;0.13;;;0.13;;
10446;SDS011;5271;44.422;26.092;2022-07-09T03:21:07;0.20;;;0.20;;
10446;SDS011;5271;44.422;26.092;2022-07-09T03:23:36;0.10;;;0.10;;
10446;SDS011;5271;44.422;26.092;2022-07-09T03:26:04;0.20;;;0.20;;
10446;SDS011;5271;44.422;26.092;2022-07-09T03:28:32;0.10;;;0.10;;
10446;SDS011;5271;44.422;26.092;2022-07-09T03:31:00;0.10;;;0.10;;
10446;SDS011;5271;44.422;26.092;2022-07-09T03:33:27;0.20;;;0.20;;
10446;SDS011;5271;44.422;26.092;2022-07-09T03:35:55;0.10;;;0.10;;
10446;SDS011;5271;44.422;26.092;2022-07-09T03:38:23;0.20;;;0.20;;
10446;SDS011;5271;44.422;26.092;2022-07-09T03:40:51;0.10;;;0.10;;
10446;SDS011;5271;44.422;26.092;2022-07-09T03:43:18;0.10;;;0.10;;
10446;SDS011;5271;44.422;26.092;2022-07-09T03:45:45;0.10;;;0.10;;
10446;SDS011;5271;44.422;26.092;2022-07-09T03:48:12;0.20;;;0.20;;
10446;SDS011;5271;44.422;26.092;2022-07-09T03:50:39;0.17;;;0.17;;
10446;SDS011;5271;44.422;26.092;2022-07-09T03:53:07;0.10;;;0.10;;
10446;SDS011;5271;44.422;26.092;2022-07-09T03:55:35;0.10;;;0.10;;
10446;SDS011;5271;44.422;26.092;2022-07-09T03:58:02;0.10;;;0.10;;
10446;SDS011;5271;44.422;26.092;2022-07-09T04:00:30;0.20;;;0.20;;
10446;SDS011;5271;44.422;26.092;2022-07-09T04:02:57;0.20;;;0.20;;
10446;SDS011;5271;44.422;26.092;2022-07-09T04:05:24;0.20;;;0.20;;
10446;SDS011;5271;44.422;26.092;2022-07-09T04:07:52;0.20;;;0.20;;
10446;SDS011;5271;44.422;26.092;2022-07-09T04:10:19;0.10;;;0.10;;
10446;SDS011;5271;44.422;26.092;2022-07-09T04:12:47;0.10;;;0.10;;
10446;SDS011;5271;44.422;26.092;2022-07-09T04:15:14;0.20;;;0.20;;
10446;SDS011;5271;44.422;26.092;2022-07-09T04:17:42;0.10;;;0.10;;
10446;SDS011;5271;44.422;26.092;2022-07-09T04:20:09;0.10;;;0.10;;
10446;SDS011;5271;44.422;26.092;2022-07-09T04:22:37;0.10;;;0.10;;
10446;SDS011;5271;44.422;26.092;2022-07-09T04:25:05;0.10;;;0.10;;
10446;SDS011;5271;44.422;26.092;2022-07-09T04:27:32;0.17;;;0.17;;
10446;SDS011;5271;44.422;26.092;2022-07-09T04:30:02;0.10;;;0.10;;
10446;SDS011;5271;44.422;26.092;2022-07-09T04:32:30;0.10;;;0.10;;
10446;SDS011;5271;44.422;26.092;2022-07-09T04:34:57;0.10;;;0.10;;
10446;SDS011;5271;44.422;26.092;2022-07-09T04:37:25;0.13;;;0.13;;
10446;SDS011;5271;44.422;26.092;2022-07-09T04:39:52;0.10;;;0.10;;
10446;SDS011;5271;44.422;26.092;2022-07-09T04:42:19;0.10;;;0.10;;
10446;SDS011;5271;44.422;26.092;2022-07-09T04:44:46;0.10;;;0.10;;
10446;SDS011;5271;44.422;26.092;2022-07-09T04:47:15;0.10;;;0.10;;
10446;SDS011;5271;44.422;26.092;2022-07-09T04:49:42;0.10;;;0.10;;
10446;SDS011;5271;44.422;26.092;2022-07-09T04:52:09;0.10;;;0.10;;
10446;SDS011;5271;44.422;26.092;2022-07-09T04:54:36;0.10;;;0.10;;
10446;SDS011;5271;44.422;26.092;2022-07-09T04:57:03;0.10;;;0.10;;
10446;SDS011;5271;44.422;26.092;2022-07-09T04:59:31;0.10;;;0.10;;
10446;SDS011;5271;44.422;26.092;2022-07-09T05:01:58;0.10;;;0.10;;
10446;SDS011;5271;44.422;26.092;2022-07-09T05:04:27;0.10;;;0.10;;
10446;SDS011;5271;44.422;26.092;2022-07-09T05:06:55;0.10;;;0.10;;
10446;SDS011;5271;44.422;26.092;2022-07-09T05:09:22;0.10;;;0.10;;
10446;SDS011;5271;44.422;26.092;2022-07-09T05:11:49;0.10;;;0.10;;
10446;SDS011;5271;44.422;26.092;2022-07-09T05:14:16;0.10;;;0.10;;
10446;SDS011;5271;44.422;26.092;2022-07-09T05:16:43;0.10;;;0.10;;
10446;SDS011;5271;44.422;26.092;2022-07-09T05:19:11;0.10;;;0.10;;
10446;SDS011;5271;44.422;26.092;2022-07-09T05:21:39;0.10;;;0.10;;
10446;SDS011;5271;44.422;26.092;2022-07-09T05:24:07;0.10;;;0.10;;
10446;SDS011;5271;44.422;26.092;2022-07-09T05:26:34;0.10;;;0.10;;
10446;SDS011;5271;44.422;26.092;2022-07-09T05:29:02;0.10;;;0.10;;
10446;SDS011;5271;44.422;26.092;2022-07-09T05:31:29;0.10;;;0.10;;
10446;SDS011;5271;44.422;26.092;2022-07-09T05:33:56;0.10;;;0.10;;
10446;SDS011;5271;44.422;26.092;2022-07-09T05:36:25;0.10;;;0.10;;
10446;SDS011;5271;44.422;26.092;2022-07-09T05:38:55;0.10;;;0.10;;
10446;SDS011;5271;44.422;26.092;2022-07-09T05:41:22;0.10;;;0.10;;
10446;SDS011;5271;44.422;26.092;2022-07-09T05:43:50;0.10;;;0.10;;
10446;SDS011;5271;44.422;26.092;2022-07-09T05:46:17;0.10;;;0.10;;
10446;SDS011;5271;44.422;26.092;2022-07-09T05:48:45;0.00;;;0.00;;
10446;SDS011;5271;44.422;26.092;2022-07-09T05:51:12;0.00;;;0.00;;
10446;SDS011;5271;44.422;26.092;2022-07-09T05:53:39;0.10;;;0.10;;
10446;SDS011;5271;44.422;26.092;2022-07-09T05:56:08;0.10;;;0.10;;
10446;SDS011;5271;44.422;26.092;2022-07-09T05:58:35;0.10;;;0.10;;
10446;SDS011;5271;44.422;26.092;2022-07-09T06:01:03;0.10;;;0.10;;
10446;SDS011;5271;44.422;26.092;2022-07-09T06:03:31;0.10;;;0.10;;
10446;SDS011;5271;44.422;26.092;2022-07-09T06:05:58;0.10;;;0.10;;
10446;SDS011;5271;44.422;26.092;2022-07-09T06:08:25;0.07;;;0.07;;
10446;SDS011;5271;44.422;26.092;2022-07-09T06:10:52;0.10;;;0.10;;
10446;SDS011;5271;44.422;26.092;2022-07-09T06:13:21;0.10;;;0.10;;
10446;SDS011;5271;44.422;26.092;2022-07-09T06:15:48;0.10;;;0.10;;
10446;SDS011;5271;44.422;26.092;2022-07-09T06:18:15;0.10;;;0.10;;
10446;SDS011;5271;44.422;26.092;2022-07-09T06:20:43;0.00;;;0.00;;
10446;SDS011;5271;44.422;26.092;2022-07-09T06:23:10;0.10;;;0.10;;
10446;SDS011;5271;44.422;26.092;2022-07-09T06:25:38;0.00;;;0.00;;
10446;SDS011;5271;44.422;26.092;2022-07-09T06:28:05;0.10;;;0.10;;
10446;SDS011;5271;44.422;26.092;2022-07-09T06:30:34;0.10;;;0.10;;
10446;SDS011;5271;44.422;26.092;2022-07-09T06:33:01;0.10;;;0.10;;
10446;SDS011;5271;44.422;26.092;2022-07-09T06:35:29;0.10;;;0.10;;
10446;SDS011;5271;44.422;26.092;2022-07-09T06:37:56;0.10;;;0.10;;
10446;SDS011;5271;44.422;26.092;2022-07-09T06:40:23;0.10;;;0.10;;
10446;SDS011;5271;44.422;26.092;2022-07-09T06:42:50;0.10;;;0.10;;
10446;SDS011;5271;44.422;26.092;2022-07-09T06:45:17;0.07;;;0.07;;
10446;SDS011;5271;44.422;26.092;2022-07-09T06:47:46;0.03;;;0.03;;
10446;SDS011;5271;44.422;26.092;2022-07-09T06:50:14;0.00;;;0.00;;
10446;SDS011;5271;44.422;26.092;2022-07-09T06:52:41;0.00;;;0.00;;
10446;SDS011;5271;44.422;26.092;2022-07-09T06:55:08;0.00;;;0.00;;
10446;SDS011;5271;44.422;26.092;2022-07-09T06:57:36;0.10;;;0.10;;
10446;SDS011;5271;44.422;26.092;2022-07-09T07:00:04;0.00;;;0.00;;
10446;SDS011;5271;44.422;26.092;2022-07-09T07:02:31;0.10;;;0.10;;
10446;SDS011;5271;44.422;26.092;2022-07-09T07:05:00;0.10;;;0.10;;
10446;SDS011;5271;44.422;26.092;2022-07-09T07:07:28;0.00;;;0.00;;
10446;SDS011;5271;44.422;26.092;2022-07-09T07:09:55;0.00;;;0.00;;
10446;SDS011;5271;44.422;26.092;2022-07-09T07:12:22;0.00;;;0.00;;
10446;SDS011;5271;44.422;26.092;2022-07-09T07:14:49;0.00;;;0.00;;
10446;SDS011;5271;44.422;26.092;2022-07-09T07:17:16;0.05;;;0.05;;
10446;SDS011;5271;44.422;26.092;2022-07-09T07:19:43;0.10;;;0.10;;
10446;SDS011;5271;44.422;26.092;2022-07-09T07:22:12;0.00;;;0.00;;
10446;SDS011;5271;44.422;26.092;2022-07-09T07:24:39;0.00;;;0.00;;
10446;SDS011;5271;44.422;26.092;2022-07-09T07:27:06;0.00;;;0.00;;
10446;SDS011;5271;44.422;26.092;2022-07-09T07:29:33;0.00;;;0.00;;
10446;SDS011;5271;44.422;26.092;2022-07-09T07:32:01;0.00;;;0.00;;
10446;SDS011;5271;44.422;26.092;2022-07-09T07:34:28;0.00;;;0.00;;
10446;SDS011;5271;44.422;26.092;2022-07-09T07:36:56;0.00;;;0.00;;
10446;SDS011;5271;44.422;26.092;2022-07-09T07:39:25;0.00;;;0.00;;
10446;SDS011;5271;44.422;26.092;2022-07-09T07:41:52;0.00;;;0.00;;
10446;SDS011;5271;44.422;26.092;2022-07-09T07:44:19;0.00;;;0.00;;
10446;SDS011;5271;44.422;26.092;2022-07-09T07:46:48;0.00;;;0.00;;
10446;SDS011;5271;44.422;26.092;2022-07-09T07:49:15;0.00;;;0.00;;
10446;SDS011;5271;44.422;26.092;2022-07-09T07:51:43;0.00;;;0.00;;
10446;SDS011;5271;44.422;26.092;2022-07-09T07:54:10;0.05;;;0.05;;
10446;SDS011;5271;44.422;26.092;2022-07-09T07:56:38;0.00;;;0.00;;
10446;SDS011;5271;44.422;26.092;2022-07-09T07:59:06;0.00;;;0.00;;
10446;SDS011;5271;44.422;26.092;2022-07-09T08:01:33;0.00;;;0.00;;
10446;SDS011;5271;44.422;26.092;2022-07-09T08:04:00;0.00;;;0.00;;
10446;SDS011;5271;44.422;26.092;2022-07-09T08:06:27;0.00;;;0.00;;
10446;SDS011;5271;44.422;26.092;2022-07-09T08:08:55;0.00;;;0.00;;
10446;SDS011;5271;44.422;26.092;2022-07-09T08:11:22;0.00;;;0.00;;
10446;SDS011;5271;44.422;26.092;2022-07-09T08:13:50;0.00;;;0.00;;
10446;SDS011;5271;44.422;26.092;2022-07-09T08:16:17;0.00;;;0.00;;
10446;SDS011;5271;44.422;26.092;2022-07-09T08:18:45;0.00;;;0.00;;
10446;SDS011;5271;44.422;26.092;2022-07-09T08:21:12;0.00;;;0.00;;
10446;SDS011;5271;44.422;26.092;2022-07-09T08:23:39;0.00;;;0.00;;
10446;SDS011;5271;44.422;26.092;2022-07-09T08:26:19;0.00;;;0.00;;
10446;SDS011;5271;44.422;26.092;2022-07-09T08:28:47;0.00;;;0.00;;
10446;SDS011;5271;44.422;26.092;2022-07-09T08:31:16;0.00;;;0.00;;
10446;SDS011;5271;44.422;26.092;2022-07-09T08:33:43;0.00;;;0.00;;
10446;SDS011;5271;44.422;26.092;2022-07-09T08:36:11;0.00;;;0.00;;
10446;SDS011;5271;44.422;26.092;2022-07-09T08:38:38;0.00;;;0.00;;
10446;SDS011;5271;44.422;26.092;2022-07-09T08:41:05;0.00;;;0.00;;
10446;SDS011;5271;44.422;26.092;2022-07-09T08:43:33;0.00;;;0.00;;
10446;SDS011;5271;44.422;26.092;2022-07-09T08:46:00;0.00;;;0.00;;
10446;SDS011;5271;44.422;26.092;2022-07-09T08:48:33;0.00;;;0.00;;
10446;SDS011;5271;44.422;26.092;2022-07-09T08:51:03;0.00;;;0.00;;
10446;SDS011;5271;44.422;26.092;2022-07-09T08:53:31;0.00;;;0.00;;
10446;SDS011;5271;44.422;26.092;2022-07-09T08:55:58;0.00;;;0.00;;
10446;SDS011;5271;44.422;26.092;2022-07-09T08:58:25;0.00;;;0.00;;
10446;SDS011;5271;44.422;26.092;2022-07-09T09:00:52;0.00;;;0.00;;
10446;SDS011;5271;44.422;26.092;2022-07-09T09:03:21;0.00;;;0.00;;
10446;SDS011;5271;44.422;26.092;2022-07-09T09:06:00;0.00;;;0.00;;
10446;SDS011;5271;44.422;26.092;2022-07-09T09:08:32;0.00;;;0.00;;
10446;SDS011;5271;44.422;26.092;2022-07-09T09:11:01;0.00;;;0.00;;
10446;SDS011;5271;44.422;26.092;2022-07-09T09:13:28;0.00;;;0.00;;
10446;SDS011;5271;44.422;26.092;2022-07-09T09:16:02;0.00;;;0.00;;
10446;SDS011;5271;44.422;26.092;2022-07-09T09:18:30;0.00;;;0.00;;
10446;SDS011;5271;44.422;26.092;2022-07-09T09:21:03;0.00;;;0.00;;
10446;SDS011;5271;44.422;26.092;2022-07-09T09:23:38;0.00;;;0.00;;
10446;SDS011;5271;44.422;26.092;2022-07-09T09:26:09;0.00;;;0.00;;
10446;SDS011;5271;44.422;26.092;2022-07-09T09:28:47;0.00;;;0.00;;
10446;SDS011;5271;44.422;26.092;2022-07-09T09:31:19;0.00;;;0.00;;
10446;SDS011;5271;44.422;26.092;2022-07-09T09:33:48;0.00;;;0.00;;
10446;SDS011;5271;44.422;26.092;2022-07-09T09:36:28;0.00;;;0.00;;
10446;SDS011;5271;44.422;26.092;2022-07-09T09:39:12;0.00;;;0.00;;
10446;SDS011;5271;44.422;26.092;2022-07-09T09:41:41;0.00;;;0.00;;
10446;SDS011;5271;44.422;26.092;2022-07-09T09:44:10;0.00;;;0.00;;
10446;SDS011;5271;44.422;26.092;2022-07-09T09:46:39;0.00;;;0.00;;
10446;SDS011;5271;44.422;26.092;2022-07-09T09:49:08;0.00;;;0.00;;
10446;SDS011;5271;44.422;26.092;2022-07-09T09:51:41;0.00;;;0.00;;
10446;SDS011;5271;44.422;26.092;2022-07-09T09:54:13;0.00;;;0.00;;
10446;SDS011;5271;44.422;26.092;2022-07-09T09:56:40;0.00;;;0.00;;
10446;SDS011;5271;44.422;26.092;2022-07-09T09:59:09;0.00;;;0.00;;
10446;SDS011;5271;44.422;26.092;2022-07-09T10:01:38;0.00;;;0.00;;
10446;SDS011;5271;44.422;26.092;2022-07-09T10:04:05;0.00;;;0.00;;
10446;SDS011;5271;44.422;26.092;2022-07-09T10:06:33;0.00;;;0.00;;
10446;SDS011;5271;44.422;26.092;2022-07-09T10:09:02;0.00;;;0.00;;
10446;SDS011;5271;44.422;26.092;2022-07-09T10:14:16;0.00;;;0.00;;
10446;SDS011;5271;44.422;26.092;2022-07-09T10:16:45;0.00;;;0.00;;
10446;SDS011;5271;44.422;26.092;2022-07-09T10:19:21;0.00;;;0.00;;
10446;SDS011;5271;44.422;26.092;2022-07-09T10:21:51;0.00;;;0.00;;
10446;SDS011;5271;44.422;26.092;2022-07-09T10:24:24;0.00;;;0.00;;
10446;SDS011;5271;44.422;26.092;2022-07-09T10:26:52;0.00;;;0.00;;
10446;SDS011;5271;44.422;26.092;2022-07-09T10:29:28;0.00;;;0.00;;
10446;SDS011;5271;44.422;26.092;2022-07-09T10:31:55;0.00;;;0.00;;
10446;SDS011;5271;44.422;26.092;2022-07-09T10:34:36;0.00;;;0.00;;
10446;SDS011;5271;44.422;26.092;2022-07-09T10:37:15;0.00;;;0.00;;
10446;SDS011;5271;44.422;26.092;2022-07-09T10:39:53;0.00;;;0.00;;
10446;SDS011;5271;44.422;26.092;2022-07-09T10:42:21;0.00;;;0.00;;
10446;SDS011;5271;44.422;26.092;2022-07-09T10:44:49;0.00;;;0.00;;
10446;SDS011;5271;44.422;26.092;2022-07-09T10:47:18;0.00;;;0.00;;
10446;SDS011;5271;44.422;26.092;2022-07-09T10:49:46;0.00;;;0.00;;
10446;SDS011;5271;44.422;26.092;2022-07-09T10:52:13;0.00;;;0.00;;
10446;SDS011;5271;44.422;26.092;2022-07-09T10:54:46;0.00;;;0.00;;
10446;SDS011;5271;44.422;26.092;2022-07-09T10:57:16;0.00;;;0.00;;
10446;SDS011;5271;44.422;26.092;2022-07-09T10:59:46;0.00;;;0.00;;
10446;SDS011;5271;44.422;26.092;2022-07-09T11:02:17;0.00;;;0.00;;
10446;SDS011;5271;44.422;26.092;2022-07-09T11:04:47;0.00;;;0.00;;
10446;SDS011;5271;44.422;26.092;2022-07-09T11:07:18;0.00;;;0.00;;
10446;SDS011;5271;44.422;26.092;2022-07-09T11:09:47;0.00;;;0.00;;
10446;SDS011;5271;44.422;26.092;2022-07-09T11:12:16;0.00;;;0.00;;
10446;SDS011;5271;44.422;26.092;2022-07-09T11:14:44;0.00;;;0.00;;
10446;SDS011;5271;44.422;26.092;2022-07-09T11:17:14;0.00;;;0.00;;
10446;SDS011;5271;44.422;26.092;2022-07-09T11:19:41;0.00;;;0.00;;
10446;SDS011;5271;44.422;26.092;2022-07-09T11:22:09;0.00;;;0.00;;
10446;SDS011;5271;44.422;26.092;2022-07-09T11:24:36;0.00;;;0.00;;
10446;SDS011;5271;44.422;26.092;2022-07-09T11:27:04;0.00;;;0.00;;
10446;SDS011;5271;44.422;26.092;2022-07-09T11:29:33;0.00;;;0.00;;
10446;SDS011;5271;44.422;26.092;2022-07-09T11:32:02;0.00;;;0.00;;
10446;SDS011;5271;44.422;26.092;2022-07-09T11:34:29;0.00;;;0.00;;
10446;SDS011;5271;44.422;26.092;2022-07-09T11:36:57;0.00;;;0.00;;
10446;SDS011;5271;44.422;26.092;2022-07-09T11:39:26;0.00;;;0.00;;
10446;SDS011;5271;44.422;26.092;2022-07-09T11:41:54;0.00;;;0.00;;
10446;SDS011;5271;44.422;26.092;2022-07-09T11:44:24;0.00;;;0.00;;
10446;SDS011;5271;44.422;26.092;2022-07-09T11:47:03;0.00;;;0.00;;
10446;SDS011;5271;44.422;26.092;2022-07-09T11:49:32;0.00;;;0.00;;
10446;SDS011;5271;44.422;26.092;2022-07-09T11:52:03;0.00;;;0.00;;
10446;SDS011;5271;44.422;26.092;2022-07-09T11:54:31;0.00;;;0.00;;
10446;SDS011;5271;44.422;26.092;2022-07-09T11:56:58;0.00;;;0.00;;
10446;SDS011;5271;44.422;26.092;2022-07-09T11:59:26;0.00;;;0.00;;
10446;SDS011;5271;44.422;26.092;2022-07-09T12:01:56;0.00;;;0.00;;
10446;SDS011;5271;44.422;26.092;2022-07-09T12:04:27;0.00;;;0.00;;
10446;SDS011;5271;44.422;26.092;2022-07-09T12:06:55;0.00;;;0.00;;
10446;SDS011;5271;44.422;26.092;2022-07-09T12:09:29;0.00;;;0.00;;
10446;SDS011;5271;44.422;26.092;2022-07-09T12:11:57;0.00;;;0.00;;
10446;SDS011;5271;44.422;26.092;2022-07-09T12:14:25;0.00;;;0.00;;
10446;SDS011;5271;44.422;26.092;2022-07-09T12:16:52;0.00;;;0.00;;
10446;SDS011;5271;44.422;26.092;2022-07-09T12:19:19;0.00;;;0.00;;
10446;SDS011;5271;44.422;26.092;2022-07-09T12:21:48;0.00;;;0.00;;
10446;SDS011;5271;44.422;26.092;2022-07-09T12:24:15;0.00;;;0.00;;
10446;SDS011;5271;44.422;26.092;2022-07-09T12:26:43;0.00;;;0.00;;
10446;SDS011;5271;44.422;26.092;2022-07-09T12:29:10;0.00;;;0.00;;
10446;SDS011;5271;44.422;26.092;2022-07-09T12:31:37;0.00;;;0.00;;
10446;SDS011;5271;44.422;26.092;2022-07-09T12:34:04;0.00;;;0.00;;
10446;SDS011;5271;44.422;26.092;2022-07-09T12:36:31;0.00;;;0.00;;
10446;SDS011;5271;44.422;26.092;2022-07-09T12:39:00;0.00;;;0.00;;
10446;SDS011;5271;44.422;26.092;2022-07-09T12:41:27;0.00;;;0.00;;
10446;SDS011;5271;44.422;26.092;2022-07-09T12:43:54;0.00;;;0.00;;
10446;SDS011;5271;44.422;26.092;2022-07-09T12:46:22;0.00;;;0.00;;
10446;SDS011;5271;44.422;26.092;2022-07-09T12:48:49;0.00;;;0.00;;
10446;SDS011;5271;44.422;26.092;2022-07-09T12:51:16;0.00;;;0.00;;
10446;SDS011;5271;44.422;26.092;2022-07-09T12:53:43;0.00;;;0.00;;
10446;SDS011;5271;44.422;26.092;2022-07-09T12:56:12;0.00;;;0.00;;
10446;SDS011;5271;44.422;26.092;2022-07-09T12:58:39;0.00;;;0.00;;
10446;SDS011;5271;44.422;26.092;2022-07-09T13:01:06;0.00;;;0.00;;
10446;SDS011;5271;44.422;26.092;2022-07-09T13:03:34;0.00;;;0.00;;
10446;SDS011;5271;44.422;26.092;2022-07-09T13:06:01;0.00;;;0.00;;
10446;SDS011;5271;44.422;26.092;2022-07-09T13:08:28;0.00;;;0.00;;
10446;SDS011;5271;44.422;26.092;2022-07-09T13:10:55;0.00;;;0.00;;
10446;SDS011;5271;44.422;26.092;2022-07-09T13:13:24;0.00;;;0.00;;
10446;SDS011;5271;44.422;26.092;2022-07-09T13:15:51;0.00;;;0.00;;
10446;SDS011;5271;44.422;26.092;2022-07-09T13:18:18;0.00;;;0.00;;
10446;SDS011;5271;44.422;26.092;2022-07-09T13:20:45;0.00;;;0.00;;
10446;SDS011;5271;44.422;26.092;2022-07-09T13:23:12;0.00;;;0.00;;
10446;SDS011;5271;44.422;26.092;2022-07-09T13:25:39;0.00;;;0.00;;
10446;SDS011;5271;44.422;26.092;2022-07-09T13:28:06;0.00;;;0.00;;
10446;SDS011;5271;44.422;26.092;2022-07-09T13:30:39;0.00;;;0.00;;
10446;SDS011;5271;44.422;26.092;2022-07-09T13:33:07;0.00;;;0.00;;
10446;SDS011;5271;44.422;26.092;2022-07-09T13:35:34;0.00;;;0.00;;
10446;SDS011;5271;44.422;26.092;2022-07-09T13:38:02;0.00;;;0.00;;
10446;SDS011;5271;44.422;26.092;2022-07-09T13:40:29;0.00;;;0.00;;
10446;SDS011;5271;44.422;26.092;2022-07-09T13:42:56;0.00;;;0.00;;
10446;SDS011;5271;44.422;26.092;2022-07-09T13:45:23;0.00;;;0.00;;
10446;SDS011;5271;44.422;26.092;2022-07-09T13:47:54;0.00;;;0.00;;
10446;SDS011;5271;44.422;26.092;2022-07-09T13:50:21;0.00;;;0.00;;
10446;SDS011;5271;44.422;26.092;2022-07-09T13:52:49;0.00;;;0.00;;
10446;SDS011;5271;44.422;26.092;2022-07-09T13:55:16;0.00;;;0.00;;
10446;SDS011;5271;44.422;26.092;2022-07-09T13:57:43;0.00;;;0.00;;
10446;SDS011;5271;44.422;26.092;2022-07-09T14:00:11;0.00;;;0.00;;
10446;SDS011;5271;44.422;26.092;2022-07-09T14:02:39;0.00;;;0.00;;
10446;SDS011;5271;44.422;26.092;2022-07-09T14:05:08;0.00;;;0.00;;
10446;SDS011;5271;44.422;26.092;2022-07-09T14:07:35;0.00;;;0.00;;
10446;SDS011;5271;44.422;26.092;2022-07-09T14:10:02;0.00;;;0.00;;
10446;SDS011;5271;44.422;26.092;2022-07-09T14:12:30;0.00;;;0.00;;
10446;SDS011;5271;44.422;26.092;2022-07-09T14:14:57;0.00;;;0.00;;
10446;SDS011;5271;44.422;26.092;2022-07-09T14:17:24;0.00;;;0.00;;
10446;SDS011;5271;44.422;26.092;2022-07-09T14:19:51;0.00;;;0.00;;
10446;SDS011;5271;44.422;26.092;2022-07-09T14:22:20;0.00;;;0.00;;
10446;SDS011;5271;44.422;26.092;2022-07-09T14:24:47;0.00;;;0.00;;
10446;SDS011;5271;44.422;26.092;2022-07-09T14:27:14;0.00;;;0.00;;
10446;SDS011;5271;44.422;26.092;2022-07-09T14:29:42;0.00;;;0.00;;
10446;SDS011;5271;44.422;26.092;2022-07-09T14:32:10;0.00;;;0.00;;
10446;SDS011;5271;44.422;26.092;2022-07-09T14:34:37;0.00;;;0.00;;
10446;SDS011;5271;44.422;26.092;2022-07-09T14:37:04;0.00;;;0.00;;
10446;SDS011;5271;44.422;26.092;2022-07-09T14:39:32;0.00;;;0.00;;
10446;SDS011;5271;44.422;26.092;2022-07-09T14:42:00;0.00;;;0.00;;
10446;SDS011;5271;44.422;26.092;2022-07-09T14:44:27;0.00;;;0.00;;
10446;SDS011;5271;44.422;26.092;2022-07-09T14:46:55;0.00;;;0.00;;
10446;SDS011;5271;44.422;26.092;2022-07-09T14:49:24;0.00;;;0.00;;
10446;SDS011;5271;44.422;26.092;2022-07-09T14:51:52;0.00;;;0.00;;
10446;SDS011;5271;44.422;26.092;2022-07-09T14:54:19;0.00;;;0.00;;
10446;SDS011;5271;44.422;26.092;2022-07-09T14:56:48;0.00;;;0.00;;